sensor_id;sensor_type;location;lat;lon;timestamp;temperature;humidity
28247;DHT22;73163;53.178;22.058;2023-11-19T00:00:23;1.50;99.90
28247;DHT22;73163;53.178;22.058;2023-11-19T00:03:33;1.40;99.90
28247;DHT22;73163;53.178;22.058;2023-11-19T00:06:51;1.40;99.90
28247;DHT22;73163;53.178;22.058;2023-11-19T00:09:34;1.40;99.90
28247;DHT22;73163;53.178;22.058;2023-11-19T00:12:44;1.50;99.90
28247;DHT22;73163;53.178;22.058;2023-11-19T00:16:42;1.50;99.90
28247;DHT22;73163;53.178;22.058;2023-11-19T00:19:53;1.50;99.90
28247;DHT22;73163;53.178;22.058;2023-11-19T00:23:01;1.50;99.90
28247;DHT22;73163;53.178;22.058;2023-11-19T00:41:33;1.30;99.90
28247;DHT22;73163;53.178;22.058;2023-11-19T00:48:40;1.30;99.90
28247;DHT22;73163;53.178;22.058;2023-11-19T00:51:47;1.20;99.90
28247;DHT22;73163;53.178;22.058;2023-11-19T00:58:08;1.00;99.90
28247;DHT22;73163;53.178;22.058;2023-11-19T01:01:19;1.10;99.90
28247;DHT22;73163;53.178;22.058;2023-11-19T01:05:27;1.20;99.90
28247;DHT22;73163;53.178;22.058;2023-11-19T01:09:44;1.10;99.90
28247;DHT22;73163;53.178;22.058;2023-11-19T01:18:03;1.20;99.90
28247;DHT22;73163;53.178;22.058;2023-11-19T01:21:31;1.20;99.90
28247;DHT22;73163;53.178;22.058;2023-11-19T01:42:50;1.20;99.90
28247;DHT22;73163;53.178;22.058;2023-11-19T01:46:15;1.40;99.90
28247;DHT22;73163;53.178;22.058;2023-11-19T01:53:57;1.50;99.90
28247;DHT22;73163;53.178;22.058;2023-11-19T02:00:45;1.40;99.90
28247;DHT22;73163;53.178;22.058;2023-11-19T02:03:31;1.50;99.90
28247;DHT22;73163;53.178;22.058;2023-11-19T02:06:32;1.40;99.90
28247;DHT22;73163;53.178;22.058;2023-11-19T02:13:27;1.30;99.90
28247;DHT22;73163;53.178;22.058;2023-11-19T02:21:10;1.40;99.90
28247;DHT22;73163;53.178;22.058;2023-11-19T02:24:55;1.40;99.90
28247;DHT22;73163;53.178;22.058;2023-11-19T02:28:37;1.50;99.90
28247;DHT22;73163;53.178;22.058;2023-11-19T02:31:58;1.50;99.90
28247;DHT22;73163;53.178;22.058;2023-11-19T02:35:06;1.50;99.90
28247;DHT22;73163;53.178;22.058;2023-11-19T02:38:25;1.50;99.90
28247;DHT22;73163;53.178;22.058;2023-11-19T02:41:22;1.60;99.90
28247;DHT22;73163;53.178;22.058;2023-11-19T02:44:18;1.60;99.90
28247;DHT22;73163;53.178;22.058;2023-11-19T02:47:27;1.60;99.90
28247;DHT22;73163;53.178;22.058;2023-11-19T02:50:52;1.60;99.90
28247;DHT22;73163;53.178;22.058;2023-11-19T02:53:46;1.60;99.90
28247;DHT22;73163;53.178;22.058;2023-11-19T02:56:19;1.70;99.90
28247;DHT22;73163;53.178;22.058;2023-11-19T02:58:54;1.70;99.90
28247;DHT22;73163;53.178;22.058;2023-11-19T03:01:42;1.70;99.90
28247;DHT22;73163;53.178;22.058;2023-11-19T03:04:47;1.70;99.90
28247;DHT22;73163;53.178;22.058;2023-11-19T03:07:48;1.80;99.90
28247;DHT22;73163;53.178;22.058;2023-11-19T03:11:22;1.80;99.90
28247;DHT22;73163;53.178;22.058;2023-11-19T03:14:00;1.80;99.90
28247;DHT22;73163;53.178;22.058;2023-11-19T03:16:49;1.90;99.90
28247;DHT22;73163;53.178;22.058;2023-11-19T03:19:41;1.90;99.90
28247;DHT22;73163;53.178;22.058;2023-11-19T03:22:16;1.90;99.90
28247;DHT22;73163;53.178;22.058;2023-11-19T03:24:49;1.90;99.90
28247;DHT22;73163;53.178;22.058;2023-11-19T03:28:03;1.90;99.90
28247;DHT22;73163;53.178;22.058;2023-11-19T03:31:03;1.90;99.90
28247;DHT22;73163;53.178;22.058;2023-11-19T03:34:06;1.90;99.90
28247;DHT22;73163;53.178;22.058;2023-11-19T03:36:52;1.90;99.90
28247;DHT22;73163;53.178;22.058;2023-11-19T03:39:39;1.80;99.90
28247;DHT22;73163;53.178;22.058;2023-11-19T03:42:24;1.80;99.90
28247;DHT22;73163;53.178;22.058;2023-11-19T03:45:04;1.90;99.90
28247;DHT22;73163;53.178;22.058;2023-11-19T03:48:15;1.90;99.90
28247;DHT22;73163;53.178;22.058;2023-11-19T03:51:11;1.80;99.90
28247;DHT22;73163;53.178;22.058;2023-11-19T03:53:47;1.80;99.90
28247;DHT22;73163;53.178;22.058;2023-11-19T03:56:36;1.80;99.90
28247;DHT22;73163;53.178;22.058;2023-11-19T03:59:16;1.90;99.90
28247;DHT22;73163;53.178;22.058;2023-11-19T04:01:58;1.80;99.90
28247;DHT22;73163;53.178;22.058;2023-11-19T04:04:51;1.80;99.90
28247;DHT22;73163;53.178;22.058;2023-11-19T04:07:24;1.60;99.90
28247;DHT22;73163;53.178;22.058;2023-11-19T04:10:00;1.70;99.90
28247;DHT22;73163;53.178;22.058;2023-11-19T04:12:41;1.70;99.90
28247;DHT22;73163;53.178;22.058;2023-11-19T04:15:35;1.60;99.90
28247;DHT22;73163;53.178;22.058;2023-11-19T04:18:21;1.60;99.90
28247;DHT22;73163;53.178;22.058;2023-11-19T04:20:55;1.70;99.90
28247;DHT22;73163;53.178;22.058;2023-11-19T04:23:31;1.70;99.90
28247;DHT22;73163;53.178;22.058;2023-11-19T04:26:08;1.70;99.90
28247;DHT22;73163;53.178;22.058;2023-11-19T04:28:47;1.70;99.90
28247;DHT22;73163;53.178;22.058;2023-11-19T04:31:20;1.70;99.90
28247;DHT22;73163;53.178;22.058;2023-11-19T04:34:12;1.70;99.90
28247;DHT22;73163;53.178;22.058;2023-11-19T04:36:43;1.70;99.90
28247;DHT22;73163;53.178;22.058;2023-11-19T04:39:22;1.70;99.90
28247;DHT22;73163;53.178;22.058;2023-11-19T04:42:01;1.70;99.90
28247;DHT22;73163;53.178;22.058;2023-11-19T04:44:29;1.70;99.90
28247;DHT22;73163;53.178;22.058;2023-11-19T04:47:27;1.70;99.90
28247;DHT22;73163;53.178;22.058;2023-11-19T04:50:02;1.60;99.90
28247;DHT22;73163;53.178;22.058;2023-11-19T04:52:33;1.60;99.90
28247;DHT22;73163;53.178;22.058;2023-11-19T04:55:08;1.60;99.90
28247;DHT22;73163;53.178;22.058;2023-11-19T04:57:44;1.50;99.90
28247;DHT22;73163;53.178;22.058;2023-11-19T05:00:16;1.50;99.90
28247;DHT22;73163;53.178;22.058;2023-11-19T05:02:47;1.50;99.90
28247;DHT22;73163;53.178;22.058;2023-11-19T05:05:20;1.50;99.90
28247;DHT22;73163;53.178;22.058;2023-11-19T05:07:53;1.50;99.90
28247;DHT22;73163;53.178;22.058;2023-11-19T05:10:26;1.50;99.90
28247;DHT22;73163;53.178;22.058;2023-11-19T05:12:55;1.50;99.90
28247;DHT22;73163;53.178;22.058;2023-11-19T05:15:42;1.50;99.90
28247;DHT22;73163;53.178;22.058;2023-11-19T05:18:30;1.60;99.90
28247;DHT22;73163;53.178;22.058;2023-11-19T05:21:01;1.60;99.90
28247;DHT22;73163;53.178;22.058;2023-11-19T05:23:32;1.60;99.90
28247;DHT22;73163;53.178;22.058;2023-11-19T05:26:02;1.50;99.90
28247;DHT22;73163;53.178;22.058;2023-11-19T05:28:33;1.50;99.90
28247;DHT22;73163;53.178;22.058;2023-11-19T05:31:04;1.50;99.90
28247;DHT22;73163;53.178;22.058;2023-11-19T05:33:33;1.50;99.90
28247;DHT22;73163;53.178;22.058;2023-11-19T05:36:01;1.50;99.90
28247;DHT22;73163;53.178;22.058;2023-11-19T05:38:31;1.50;99.90
28247;DHT22;73163;53.178;22.058;2023-11-19T05:40:59;1.50;99.90
28247;DHT22;73163;53.178;22.058;2023-11-19T05:43:27;1.40;99.90
28247;DHT22;73163;53.178;22.058;2023-11-19T05:45:59;1.40;99.90
28247;DHT22;73163;53.178;22.058;2023-11-19T05:48:27;1.50;99.90
28247;DHT22;73163;53.178;22.058;2023-11-19T05:50:55;1.50;99.90
28247;DHT22;73163;53.178;22.058;2023-11-19T05:53:23;1.50;99.90
28247;DHT22;73163;53.178;22.058;2023-11-19T05:55:53;1.50;99.90
28247;DHT22;73163;53.178;22.058;2023-11-19T05:58:27;1.50;99.90
28247;DHT22;73163;53.178;22.058;2023-11-19T06:01:01;1.50;99.90
28247;DHT22;73163;53.178;22.058;2023-11-19T06:03:29;1.50;99.90
28247;DHT22;73163;53.178;22.058;2023-11-19T06:05:59;1.50;99.90
28247;DHT22;73163;53.178;22.058;2023-11-19T06:08:27;1.60;99.90
28247;DHT22;73163;53.178;22.058;2023-11-19T06:10:55;1.60;99.90
28247;DHT22;73163;53.178;22.058;2023-11-19T06:13:23;1.60;99.90
28247;DHT22;73163;53.178;22.058;2023-11-19T06:15:53;1.70;99.90
28247;DHT22;73163;53.178;22.058;2023-11-19T06:18:24;1.70;99.90
28247;DHT22;73163;53.178;22.058;2023-11-19T06:20:52;1.70;99.90
28247;DHT22;73163;53.178;22.058;2023-11-19T06:23:43;1.80;99.90
28247;DHT22;73163;53.178;22.058;2023-11-19T06:26:17;1.90;99.90
28247;DHT22;73163;53.178;22.058;2023-11-19T06:28:51;1.90;99.90
28247;DHT22;73163;53.178;22.058;2023-11-19T06:31:21;1.90;99.90
28247;DHT22;73163;53.178;22.058;2023-11-19T06:33:54;1.90;99.90
28247;DHT22;73163;53.178;22.058;2023-11-19T10:31:24;3.60;99.90
28247;DHT22;73163;53.178;22.058;2023-11-19T10:34:29;3.50;99.90
28247;DHT22;73163;53.178;22.058;2023-11-19T13:54:48;3.10;99.90
28247;DHT22;73163;53.178;22.058;2023-11-19T13:57:30;3.10;99.90
28247;DHT22;73163;53.178;22.058;2023-11-19T14:00:03;3.00;99.90
28247;DHT22;73163;53.178;22.058;2023-11-19T14:02:38;2.90;99.90
28247;DHT22;73163;53.178;22.058;2023-11-19T14:05:07;3.00;99.90
28247;DHT22;73163;53.178;22.058;2023-11-19T14:07:35;3.00;99.90
28247;DHT22;73163;53.178;22.058;2023-11-19T14:10:03;3.00;99.90
28247;DHT22;73163;53.178;22.058;2023-11-19T14:12:33;3.00;99.90
28247;DHT22;73163;53.178;22.058;2023-11-19T14:15:01;3.10;99.90
28247;DHT22;73163;53.178;22.058;2023-11-19T14:17:37;3.10;99.90
28247;DHT22;73163;53.178;22.058;2023-11-19T14:20:07;3.10;99.90
28247;DHT22;73163;53.178;22.058;2023-11-19T14:22:41;3.10;99.90
28247;DHT22;73163;53.178;22.058;2023-11-19T14:25:11;3.10;99.90
28247;DHT22;73163;53.178;22.058;2023-11-19T14:27:44;3.00;99.90
28247;DHT22;73163;53.178;22.058;2023-11-19T14:30:13;3.00;99.90
28247;DHT22;73163;53.178;22.058;2023-11-19T14:32:44;3.00;99.90
28247;DHT22;73163;53.178;22.058;2023-11-19T14:35:13;3.00;99.90
28247;DHT22;73163;53.178;22.058;2023-11-19T14:37:41;3.00;99.90
28247;DHT22;73163;53.178;22.058;2023-11-19T14:40:09;3.00;99.90
28247;DHT22;73163;53.178;22.058;2023-11-19T14:42:39;3.00;99.90
28247;DHT22;73163;53.178;22.058;2023-11-19T14:45:08;3.00;99.90
28247;DHT22;73163;53.178;22.058;2023-11-19T14:47:39;3.00;99.90
28247;DHT22;73163;53.178;22.058;2023-11-19T14:50:07;3.00;99.90
28247;DHT22;73163;53.178;22.058;2023-11-19T14:52:36;3.10;99.90
28247;DHT22;73163;53.178;22.058;2023-11-19T14:55:04;3.10;99.90
28247;DHT22;73163;53.178;22.058;2023-11-19T14:57:33;3.00;99.90
28247;DHT22;73163;53.178;22.058;2023-11-19T15:00:03;3.00;99.90
28247;DHT22;73163;53.178;22.058;2023-11-19T15:02:41;3.10;99.90
28247;DHT22;73163;53.178;22.058;2023-11-19T15:05:09;3.00;99.90
28247;DHT22;73163;53.178;22.058;2023-11-19T15:07:41;3.00;99.90
28247;DHT22;73163;53.178;22.058;2023-11-19T15:10:08;3.00;99.90
28247;DHT22;73163;53.178;22.058;2023-11-19T15:12:39;2.90;99.90
28247;DHT22;73163;53.178;22.058;2023-11-19T15:15:09;2.90;99.90
28247;DHT22;73163;53.178;22.058;2023-11-19T15:17:37;2.90;99.90
28247;DHT22;73163;53.178;22.058;2023-11-19T15:20:05;2.90;99.90
28247;DHT22;73163;53.178;22.058;2023-11-19T15:22:34;2.90;99.90
28247;DHT22;73163;53.178;22.058;2023-11-19T15:25:02;2.80;99.90
28247;DHT22;73163;53.178;22.058;2023-11-19T15:27:30;2.80;99.90
28247;DHT22;73163;53.178;22.058;2023-11-19T15:29:58;2.90;99.90
28247;DHT22;73163;53.178;22.058;2023-11-19T15:32:29;2.80;99.90
28247;DHT22;73163;53.178;22.058;2023-11-19T15:34:59;2.80;99.90
28247;DHT22;73163;53.178;22.058;2023-11-19T15:37:27;2.80;99.90
28247;DHT22;73163;53.178;22.058;2023-11-19T15:39:54;2.80;99.90
28247;DHT22;73163;53.178;22.058;2023-11-19T15:42:23;2.80;99.90
28247;DHT22;73163;53.178;22.058;2023-11-19T15:44:50;2.80;99.90
28247;DHT22;73163;53.178;22.058;2023-11-19T15:47:19;2.80;99.90
28247;DHT22;73163;53.178;22.058;2023-11-19T15:49:52;2.80;99.90
28247;DHT22;73163;53.178;22.058;2023-11-19T15:52:20;2.80;99.90
28247;DHT22;73163;53.178;22.058;2023-11-19T15:54:49;2.80;99.90
28247;DHT22;73163;53.178;22.058;2023-11-19T15:57:17;2.80;99.90
28247;DHT22;73163;53.178;22.058;2023-11-19T15:59:48;2.90;99.90
28247;DHT22;73163;53.178;22.058;2023-11-19T16:02:17;2.80;99.90
28247;DHT22;73163;53.178;22.058;2023-11-19T16:04:45;2.90;99.90
28247;DHT22;73163;53.178;22.058;2023-11-19T16:07:15;2.90;99.90
28247;DHT22;73163;53.178;22.058;2023-11-19T16:09:43;2.90;99.90
28247;DHT22;73163;53.178;22.058;2023-11-19T16:12:11;2.90;99.90
28247;DHT22;73163;53.178;22.058;2023-11-19T16:14:40;2.90;99.90
28247;DHT22;73163;53.178;22.058;2023-11-19T16:17:09;2.90;99.90
28247;DHT22;73163;53.178;22.058;2023-11-19T16:19:37;2.90;99.90
28247;DHT22;73163;53.178;22.058;2023-11-19T16:22:08;2.90;99.90
28247;DHT22;73163;53.178;22.058;2023-11-19T16:24:39;2.90;99.90
28247;DHT22;73163;53.178;22.058;2023-11-19T16:27:07;2.90;99.90
28247;DHT22;73163;53.178;22.058;2023-11-19T16:29:36;2.90;99.90
28247;DHT22;73163;53.178;22.058;2023-11-19T16:32:04;2.90;99.90
28247;DHT22;73163;53.178;22.058;2023-11-19T16:34:34;2.80;99.90
28247;DHT22;73163;53.178;22.058;2023-11-19T16:37:09;2.80;99.90
28247;DHT22;73163;53.178;22.058;2023-11-19T16:39:37;2.80;99.90
28247;DHT22;73163;53.178;22.058;2023-11-19T16:42:09;2.70;99.90
28247;DHT22;73163;53.178;22.058;2023-11-19T16:44:37;2.70;99.90
28247;DHT22;73163;53.178;22.058;2023-11-19T16:47:05;2.80;99.90
28247;DHT22;73163;53.178;22.058;2023-11-19T16:49:34;2.80;99.90
28247;DHT22;73163;53.178;22.058;2023-11-19T16:52:02;2.80;99.90
28247;DHT22;73163;53.178;22.058;2023-11-19T16:54:32;2.80;99.90
28247;DHT22;73163;53.178;22.058;2023-11-19T16:57:00;2.80;99.90
28247;DHT22;73163;53.178;22.058;2023-11-19T16:59:28;2.80;99.90
28247;DHT22;73163;53.178;22.058;2023-11-19T17:01:59;2.80;99.90
28247;DHT22;73163;53.178;22.058;2023-11-19T17:04:28;2.90;99.90
28247;DHT22;73163;53.178;22.058;2023-11-19T17:06:57;2.80;99.90
28247;DHT22;73163;53.178;22.058;2023-11-19T17:09:27;2.80;99.90
28247;DHT22;73163;53.178;22.058;2023-11-19T17:11:56;2.80;99.90
28247;DHT22;73163;53.178;22.058;2023-11-19T17:14:24;2.80;99.90
28247;DHT22;73163;53.178;22.058;2023-11-19T17:16:52;2.80;99.90
28247;DHT22;73163;53.178;22.058;2023-11-19T17:19:20;2.80;99.90
28247;DHT22;73163;53.178;22.058;2023-11-19T17:21:49;2.80;99.90
28247;DHT22;73163;53.178;22.058;2023-11-19T17:24:23;2.80;99.90
28247;DHT22;73163;53.178;22.058;2023-11-19T17:26:53;2.80;99.90
28247;DHT22;73163;53.178;22.058;2023-11-19T17:29:25;2.80;99.90
28247;DHT22;73163;53.178;22.058;2023-11-19T17:31:53;2.80;99.90
28247;DHT22;73163;53.178;22.058;2023-11-19T17:34:35;2.80;99.90
28247;DHT22;73163;53.178;22.058;2023-11-19T17:37:07;2.80;99.90
28247;DHT22;73163;53.178;22.058;2023-11-19T17:39:35;2.90;99.90
28247;DHT22;73163;53.178;22.058;2023-11-19T17:42:04;2.90;99.90
28247;DHT22;73163;53.178;22.058;2023-11-19T17:44:33;2.90;99.90
28247;DHT22;73163;53.178;22.058;2023-11-19T17:47:03;2.90;99.90
28247;DHT22;73163;53.178;22.058;2023-11-19T17:49:31;2.90;99.90
28247;DHT22;73163;53.178;22.058;2023-11-19T17:51:59;2.90;99.90
28247;DHT22;73163;53.178;22.058;2023-11-19T17:54:27;2.90;99.90
28247;DHT22;73163;53.178;22.058;2023-11-19T17:56:55;2.90;99.90
28247;DHT22;73163;53.178;22.058;2023-11-19T17:59:30;2.90;99.90
28247;DHT22;73163;53.178;22.058;2023-11-19T18:01:59;2.90;99.90
28247;DHT22;73163;53.178;22.058;2023-11-19T18:04:29;2.90;99.90
28247;DHT22;73163;53.178;22.058;2023-11-19T18:06:57;2.90;99.90
28247;DHT22;73163;53.178;22.058;2023-11-19T18:09:25;2.90;99.90
28247;DHT22;73163;53.178;22.058;2023-11-19T18:11:54;2.90;99.90
28247;DHT22;73163;53.178;22.058;2023-11-19T18:14:22;3.00;99.90
28247;DHT22;73163;53.178;22.058;2023-11-19T18:16:51;2.90;99.90
28247;DHT22;73163;53.178;22.058;2023-11-19T18:19:22;2.90;99.90
28247;DHT22;73163;53.178;22.058;2023-11-19T18:21:52;2.90;99.90
28247;DHT22;73163;53.178;22.058;2023-11-19T18:24:20;2.90;99.90
28247;DHT22;73163;53.178;22.058;2023-11-19T18:26:49;2.90;99.90
28247;DHT22;73163;53.178;22.058;2023-11-19T18:29:17;2.90;99.90
28247;DHT22;73163;53.178;22.058;2023-11-19T18:31:45;2.90;99.90
28247;DHT22;73163;53.178;22.058;2023-11-19T18:34:13;2.90;99.90
28247;DHT22;73163;53.178;22.058;2023-11-19T18:36:42;2.90;99.90
28247;DHT22;73163;53.178;22.058;2023-11-19T18:39:09;2.90;99.90
28247;DHT22;73163;53.178;22.058;2023-11-19T18:41:38;3.00;99.90
28247;DHT22;73163;53.178;22.058;2023-11-19T18:44:07;3.00;99.90
28247;DHT22;73163;53.178;22.058;2023-11-19T18:46:35;3.00;99.90
28247;DHT22;73163;53.178;22.058;2023-11-19T18:49:03;3.00;99.90
28247;DHT22;73163;53.178;22.058;2023-11-19T18:51:32;3.10;99.90
28247;DHT22;73163;53.178;22.058;2023-11-19T18:54:00;3.00;99.90
28247;DHT22;73163;53.178;22.058;2023-11-19T18:56:29;3.00;99.90
28247;DHT22;73163;53.178;22.058;2023-11-19T18:58:57;3.10;99.90
28247;DHT22;73163;53.178;22.058;2023-11-19T19:01:25;3.10;99.90
28247;DHT22;73163;53.178;22.058;2023-11-19T19:03:56;3.10;99.90
28247;DHT22;73163;53.178;22.058;2023-11-19T19:06:24;3.10;99.90
28247;DHT22;73163;53.178;22.058;2023-11-19T19:08:53;3.10;99.90
28247;DHT22;73163;53.178;22.058;2023-11-19T19:11:21;3.10;99.90
28247;DHT22;73163;53.178;22.058;2023-11-19T19:13:48;3.10;99.90
28247;DHT22;73163;53.178;22.058;2023-11-19T19:16:17;3.10;99.90
28247;DHT22;73163;53.178;22.058;2023-11-19T19:18:45;3.10;99.90
28247;DHT22;73163;53.178;22.058;2023-11-19T19:21:14;3.10;99.90
28247;DHT22;73163;53.178;22.058;2023-11-19T19:23:41;3.00;99.90
28247;DHT22;73163;53.178;22.058;2023-11-19T19:26:10;3.10;99.90
28247;DHT22;73163;53.178;22.058;2023-11-19T19:28:38;3.10;99.90
28247;DHT22;73163;53.178;22.058;2023-11-19T19:31:07;3.00;99.90
28247;DHT22;73163;53.178;22.058;2023-11-19T19:33:34;3.00;99.90
28247;DHT22;73163;53.178;22.058;2023-11-19T19:36:03;3.00;99.90
28247;DHT22;73163;53.178;22.058;2023-11-19T19:38:31;3.00;99.90
28247;DHT22;73163;53.178;22.058;2023-11-19T19:40:59;3.00;99.90
28247;DHT22;73163;53.178;22.058;2023-11-19T19:43:31;3.10;99.90
28247;DHT22;73163;53.178;22.058;2023-11-19T19:45:59;3.10;99.90
28247;DHT22;73163;53.178;22.058;2023-11-19T19:48:27;3.10;99.90
28247;DHT22;73163;53.178;22.058;2023-11-19T19:50:55;3.10;99.90
28247;DHT22;73163;53.178;22.058;2023-11-19T19:53:23;3.10;99.90
28247;DHT22;73163;53.178;22.058;2023-11-19T19:55:52;3.10;99.90
28247;DHT22;73163;53.178;22.058;2023-11-19T19:58:21;3.10;99.90
28247;DHT22;73163;53.178;22.058;2023-11-19T20:00:50;3.10;99.90
28247;DHT22;73163;53.178;22.058;2023-11-19T20:03:21;3.10;99.90
28247;DHT22;73163;53.178;22.058;2023-11-19T20:05:49;3.10;99.90
28247;DHT22;73163;53.178;22.058;2023-11-19T20:08:17;3.10;99.90
28247;DHT22;73163;53.178;22.058;2023-11-19T20:10:45;3.10;99.90
28247;DHT22;73163;53.178;22.058;2023-11-19T20:13:13;3.20;99.90
28247;DHT22;73163;53.178;22.058;2023-11-19T20:15:43;3.20;99.90
28247;DHT22;73163;53.178;22.058;2023-11-19T20:18:11;3.20;99.90
28247;DHT22;73163;53.178;22.058;2023-11-19T20:20:42;3.20;99.90
28247;DHT22;73163;53.178;22.058;2023-11-19T20:23:10;3.20;99.90
28247;DHT22;73163;53.178;22.058;2023-11-19T20:25:39;3.20;99.90
28247;DHT22;73163;53.178;22.058;2023-11-19T20:28:06;3.30;99.90
28247;DHT22;73163;53.178;22.058;2023-11-19T20:30:34;3.20;99.90
28247;DHT22;73163;53.178;22.058;2023-11-19T20:33:02;3.20;99.90
28247;DHT22;73163;53.178;22.058;2023-11-19T20:35:30;3.20;99.90
28247;DHT22;73163;53.178;22.058;2023-11-19T20:37:57;3.30;99.90
28247;DHT22;73163;53.178;22.058;2023-11-19T20:40:26;3.30;99.90
28247;DHT22;73163;53.178;22.058;2023-11-19T20:42:54;3.30;99.90
28247;DHT22;73163;53.178;22.058;2023-11-19T20:45:22;3.30;99.90
28247;DHT22;73163;53.178;22.058;2023-11-19T20:47:49;3.20;99.90
28247;DHT22;73163;53.178;22.058;2023-11-19T20:50:18;3.20;99.90
28247;DHT22;73163;53.178;22.058;2023-11-19T20:52:49;3.10;99.90
28247;DHT22;73163;53.178;22.058;2023-11-19T20:55:19;3.10;99.90
28247;DHT22;73163;53.178;22.058;2023-11-19T20:57:47;3.10;99.90
28247;DHT22;73163;53.178;22.058;2023-11-19T21:00:17;3.00;99.90
28247;DHT22;73163;53.178;22.058;2023-11-19T21:02:45;3.00;99.90
28247;DHT22;73163;53.178;22.058;2023-11-19T21:05:14;3.00;99.90
28247;DHT22;73163;53.178;22.058;2023-11-19T21:07:41;3.00;99.90
28247;DHT22;73163;53.178;22.058;2023-11-19T21:10:10;3.00;99.90
28247;DHT22;73163;53.178;22.058;2023-11-19T21:12:40;3.00;99.90
28247;DHT22;73163;53.178;22.058;2023-11-19T21:15:08;3.00;99.90
28247;DHT22;73163;53.178;22.058;2023-11-19T21:17:36;3.00;99.90
28247;DHT22;73163;53.178;22.058;2023-11-19T21:20:05;3.00;99.90
28247;DHT22;73163;53.178;22.058;2023-11-19T21:22:33;3.00;99.90
28247;DHT22;73163;53.178;22.058;2023-11-19T21:25:01;2.90;99.90
28247;DHT22;73163;53.178;22.058;2023-11-19T21:27:28;3.00;99.90
28247;DHT22;73163;53.178;22.058;2023-11-19T21:30:00;2.90;99.90
28247;DHT22;73163;53.178;22.058;2023-11-19T21:32:31;2.90;99.90
28247;DHT22;73163;53.178;22.058;2023-11-19T21:35:00;2.80;99.90
28247;DHT22;73163;53.178;22.058;2023-11-19T21:37:28;2.90;99.90
28247;DHT22;73163;53.178;22.058;2023-11-19T21:39:56;2.80;99.90
28247;DHT22;73163;53.178;22.058;2023-11-19T21:42:23;2.80;99.90
28247;DHT22;73163;53.178;22.058;2023-11-19T21:44:51;2.80;99.90
28247;DHT22;73163;53.178;22.058;2023-11-19T21:47:19;2.80;99.90
28247;DHT22;73163;53.178;22.058;2023-11-19T21:49:50;2.80;99.90
28247;DHT22;73163;53.178;22.058;2023-11-19T21:52:18;2.80;99.90
28247;DHT22;73163;53.178;22.058;2023-11-19T21:54:46;2.70;99.90
28247;DHT22;73163;53.178;22.058;2023-11-19T21:57:14;2.70;99.90
28247;DHT22;73163;53.178;22.058;2023-11-19T21:59:42;2.70;99.90
28247;DHT22;73163;53.178;22.058;2023-11-19T22:02:10;2.70;99.90
28247;DHT22;73163;53.178;22.058;2023-11-19T22:04:38;2.60;99.90
28247;DHT22;73163;53.178;22.058;2023-11-19T22:07:05;2.70;99.90
28247;DHT22;73163;53.178;22.058;2023-11-19T22:09:34;2.60;99.90
28247;DHT22;73163;53.178;22.058;2023-11-19T22:12:02;2.70;99.90
28247;DHT22;73163;53.178;22.058;2023-11-19T22:14:30;2.60;99.90
28247;DHT22;73163;53.178;22.058;2023-11-19T22:16:59;2.70;99.90
28247;DHT22;73163;53.178;22.058;2023-11-19T22:19:27;2.70;99.90
28247;DHT22;73163;53.178;22.058;2023-11-19T22:21:55;2.60;99.90
28247;DHT22;73163;53.178;22.058;2023-11-19T22:24:24;2.60;99.90
28247;DHT22;73163;53.178;22.058;2023-11-19T22:26:51;2.60;99.90
28247;DHT22;73163;53.178;22.058;2023-11-19T22:29:19;2.60;99.90
28247;DHT22;73163;53.178;22.058;2023-11-19T22:31:48;2.60;99.90
28247;DHT22;73163;53.178;22.058;2023-11-19T22:34:15;2.60;99.90
28247;DHT22;73163;53.178;22.058;2023-11-19T22:36:43;2.60;99.90
28247;DHT22;73163;53.178;22.058;2023-11-19T22:39:12;2.50;99.90
28247;DHT22;73163;53.178;22.058;2023-11-19T22:41:42;2.50;99.90
28247;DHT22;73163;53.178;22.058;2023-11-19T22:44:10;2.50;99.90
28247;DHT22;73163;53.178;22.058;2023-11-19T22:46:38;2.50;99.90
28247;DHT22;73163;53.178;22.058;2023-11-19T22:49:07;2.50;99.90
28247;DHT22;73163;53.178;22.058;2023-11-19T22:51:35;2.40;99.90
28247;DHT22;73163;53.178;22.058;2023-11-19T22:54:03;2.40;99.90
28247;DHT22;73163;53.178;22.058;2023-11-19T22:56:31;2.40;99.90
28247;DHT22;73163;53.178;22.058;2023-11-19T22:59:00;2.50;99.90
28247;DHT22;73163;53.178;22.058;2023-11-19T23:01:27;2.40;99.90
28247;DHT22;73163;53.178;22.058;2023-11-19T23:03:55;2.50;99.90
28247;DHT22;73163;53.178;22.058;2023-11-19T23:06:23;2.50;99.90
28247;DHT22;73163;53.178;22.058;2023-11-19T23:08:51;2.50;99.90
28247;DHT22;73163;53.178;22.058;2023-11-19T23:11:19;2.50;99.90
28247;DHT22;73163;53.178;22.058;2023-11-19T23:13:47;2.50;99.90
28247;DHT22;73163;53.178;22.058;2023-11-19T23:16:16;2.50;99.90
28247;DHT22;73163;53.178;22.058;2023-11-19T23:18:45;2.50;99.90
28247;DHT22;73163;53.178;22.058;2023-11-19T23:21:13;2.50;99.90
28247;DHT22;73163;53.178;22.058;2023-11-19T23:23:42;2.40;99.90
28247;DHT22;73163;53.178;22.058;2023-11-19T23:26:10;2.40;99.90
28247;DHT22;73163;53.178;22.058;2023-11-19T23:28:42;2.40;99.90
28247;DHT22;73163;53.178;22.058;2023-11-19T23:31:09;2.40;99.90
28247;DHT22;73163;53.178;22.058;2023-11-19T23:33:38;2.30;99.90
28247;DHT22;73163;53.178;22.058;2023-11-19T23:36:06;2.30;99.90
28247;DHT22;73163;53.178;22.058;2023-11-19T23:38:35;2.30;99.90
28247;DHT22;73163;53.178;22.058;2023-11-19T23:41:03;2.30;99.90
28247;DHT22;73163;53.178;22.058;2023-11-19T23:43:35;2.30;99.90
28247;DHT22;73163;53.178;22.058;2023-11-19T23:46:02;2.30;99.90
28247;DHT22;73163;53.178;22.058;2023-11-19T23:48:31;2.30;99.90
28247;DHT22;73163;53.178;22.058;2023-11-19T23:50:59;2.30;99.90
28247;DHT22;73163;53.178;22.058;2023-11-19T23:53:27;2.30;99.90
28247;DHT22;73163;53.178;22.058;2023-11-19T23:55:54;2.20;99.90
28247;DHT22;73163;53.178;22.058;2023-11-19T23:58:22;2.20;99.90
